KPRX

Details ICAO KPRX
Name COX FLD
Region United States
Timezone America/Chicago (UTC-6.0)
Plans Departing 8
Arriving 4
Stats Elevation 547 ft / 167 m (AMSL)
Location 33.636621° -95.450395°
Runways 3
Magnetic Variation 2.439° E
Sunrise 2017-12-11 13:17:50 UTC / 2017-12-11 07:17:50 Local
Sunset 2017-12-11 23:15:26 UTC / 2017-12-11 17:15:26 Local
Advertisement - Login to hide

Runways

ID Width Length Bearing (true) Bearing (mag) Surface Threshold Offset Overrun Length
03 150 ft / 46 m 4,630 ft / 1,411 m 37.03° 34.59° Concrete 0 ft / 0 m 0 ft / 0 m
14 150 ft / 46 m 4,629 ft / 1,411 m 141.30° 138.86° Concrete 0 ft / 0 m 0 ft / 0 m
17 150 ft / 46 m 6,017 ft / 1,834 m 179.18° 176.74° Asphalt 0 ft / 0 m 0 ft / 0 m
21 150 ft / 46 m 4,630 ft / 1,411 m 217.04° 214.60° Concrete 0 ft / 0 m 0 ft / 0 m
32 150 ft / 46 m 4,629 ft / 1,411 m 321.31° 318.87° Concrete 0 ft / 0 m 0 ft / 0 m
35 150 ft / 46 m 6,017 ft / 1,834 m 359.18° 356.74° Asphalt 0 ft / 0 m 0 ft / 0 m

Map

Weather


0- 5 10 15 20 25 30 35+ Temperature / ° C

Clouds and Precipitation
Forecast for 2017-12-11 12:00 UTC. Updated 2 hours ago

Ground ~20,000 ft ~40,000 ft Winds

METAR

KPRX 111056Z AUTO 00000KT 10SM CLR 03/M05 A3024 RMK AO2 SLP258 T00331050

TAF

Not found

Frequencies

Recorded 119.67 MHz AWOS 3
Unicom 122.97 MHz CTAF/UNICOM
Warning: Do not use this data for real-world aviation or navigation. No guarantee of current accuracy is given.